Latest Weather Observations for Rockhampton

IDQ60801

Issued at 8:05 pm EST Sunday 31 August 2014 (issued every 30 minutes, with the page automatically refreshed every 10 minutes)

About weather observations | Map of weather stations | Latest weather observations for QLD | Other Formats
Station Details ID: 039083 Name: ROCKHAMPTON AERO Lat: -23.38 Lon: 150.48 Height: 10.4 m
Data from the previous 72 hours. | See also: Recent months at Rockhampton
Date/Time
EST
Temp
°C
App
Temp
°C
Dew
Point
Rel
Hum
%
Delta-T
°C
Wind Press
QNH
hPa
Press
MSL
hPa
Rain
since 9 am
mm
Dir
 
Spd
km/h
Gust
km/h
Spd
kts
Gust
kts
31/08:00pm 17.6 14.0 3.0 37 6.7 N 11 13 6 7 1017.8 - 0.0
31/07:30pm 18.7 15.1 3.2 35 7.2 N 11 13 6 7 1017.4 - 0.0
31/07:00pm 19.7 15.8 1.3 29 8.3 N 11 15 6 8 1016.8 - 0.0
31/06:30pm 19.6 15.2 2.5 32 7.9 NNE 15 20 8 11 1016.2 - 0.0
31/06:00pm 20.6 15.9 3.3 32 8.2 N 17 22 9 12 1015.6 1015.6 0.0
31/05:30pm 22.5 17.3 2.4 26 9.5 NNE 19 24 10 13 1015.2 - 0.0
31/05:00pm 24.2 19.1 3.2 25 10.2 N 19 24 10 13 1014.9 - 0.0
31/04:30pm 25.6 20.7 4.1 25 10.7 NNE 19 26 10 14 1014.4 - 0.0
31/04:00pm 27.3 23.0 -4.4 12 13.7 WSW 9 17 5 9 1014.2 - 0.0
31/03:30pm 27.4 22.3 -5.2 11 13.9 W 13 20 7 11 1014.1 - 0.0
31/03:00pm 26.5 22.8 -0.3 17 12.4 E 9 17 5 9 1014.3 1014.3 0.0
31/02:30pm 27.2 23.5 2.1 19 12.2 NNE 11 20 6 11 1014.6 - 0.0
31/02:00pm 27.0 23.7 2.4 20 12.0 NNE 9 20 5 11 1014.9 - 0.0
31/01:30pm 26.7 22.6 2.1 20 11.9 NE 13 20 7 11 1015.3 - 0.0
31/01:00pm 25.7 22.2 3.3 23 11.0 NNE 11 15 6 8 1016.0 - 0.0
31/12:30pm 25.3 22.1 3.2 24 10.8 WNW 9 13 5 7 1016.7 - 0.0
31/12:00pm 25.2 22.4 5.0 27 10.2 E 9 17 5 9 1017.2 1017.2 0.0
31/11:30am 24.0 22.1 6.5 32 9.0 SE 6 11 3 6 1017.8 - 0.0
31/11:00am 23.2 21.5 8.5 39 7.8 SE 7 9 4 5 1018.3 - 0.0
31/10:30am 21.9 20.5 9.4 45 6.7 SSE 7 15 4 8 1018.8 - 0.0
31/10:00am 20.7 18.8 9.2 47 6.1 S 9 15 5 8 1019.2 - 0.0
31/09:30am 19.5 19.4 10.8 57 4.7 SE 2 7 1 4 1019.4 - 0.0
31/09:00am 18.1 18.3 11.7 66 3.5 SW 2 6 1 3 1019.7 1019.7 0.0
31/08:30am 15.5 15.1 11.0 74 2.4 SW 4 7 2 4 1019.8 - 0.0
31/08:00am 13.5 13.2 10.0 79 1.8 S 2 6 1 3 1019.7 - 0.0
31/07:30am 11.6 11.4 9.2 85 1.2 CALM 0 0 0 0 1019.5 - 0.0
31/07:00am 9.9 9.6 8.7 92 0.6 CALM 0 0 0 0 1019.3 - 0.0
31/06:30am 8.4 7.6 6.7 89 0.8 CALM 0 0 0 0 1018.9 - 0.0
31/06:00am 8.5 7.8 6.8 89 0.8 S 0 0 0 0 1018.4 1018.4 0.0
31/05:30am 8.4 7.8 7.3 93 0.5 CALM 0 0 0 0 1018.2 - 0.0
31/05:00am 9.2 7.3 6.8 85 1.1 SSW 6 7 3 4 1017.9 - 0.0
31/04:30am 9.4 8.2 7.9 90 0.7 S 4 6 2 3 1017.7 - 0.0
31/04:00am 10.3 9.3 8.7 90 0.8 S 4 7 2 4 1017.7 - 0.0
31/03:30am 10.2 9.9 8.8 91 0.7 CALM 0 0 0 0 1017.8 - 0.0
31/03:00am 11.4 11.2 9.0 85 1.2 CALM 0 0 0 0 1017.8 1017.8 0.0
31/02:30am 10.9 10.0 9.1 89 0.9 SSW 4 6 2 3 1017.8 - 0.0
31/02:00am 10.8 9.4 9.0 89 0.9 SSW 6 9 3 5 1017.9 - 0.0
31/01:30am 11.7 11.3 9.9 89 0.9 S 2 6 1 3 1018.1 - 0.0
31/01:00am 11.8 11.0 9.6 86 1.1 SSE 4 7 2 4 1018.2 - 0.0
31/12:30am 13.0 11.9 10.1 82 1.5 NNW 6 11 3 6 1018.3 - 0.0
31/12:00am 12.8 12.9 10.3 85 1.3 NNW 0 6 0 3 1018.5 1018.5 0.0
 
Date/Time
EST
Temp
°C
App
Temp
°C
Dew
Point
Rel
Hum
%
Delta-T
°C
Wind Press
QNH
hPa
Press
MSL
hPa
Rain
since 9 am
mm
Dir
 
Spd
km/h
Gust
km/h
Spd
kts
Gust
kts
30/11:30pm 13.4 13.3 10.7 84 1.4 NW 2 7 1 4 1018.7 - 0.0
30/11:00pm 13.9 14.2 10.9 82 1.6 CALM 0 6 0 3 1018.7 - 0.0
30/10:30pm 14.7 13.9 10.9 78 2.0 W 6 7 3 4 1018.8 - 0.0
30/10:00pm 15.8 14.8 10.9 72 2.6 NW 7 9 4 5 1018.6 - 0.0
30/09:30pm 16.9 15.1 10.7 67 3.3 N 11 15 6 8 1018.4 - 0.0
30/09:00pm 17.6 14.8 10.0 61 4.0 N 15 17 8 9 1018.3 1018.3 0.0
30/08:30pm 17.2 14.8 10.0 62 3.8 N 13 15 7 8 1018.2 - 0.0
30/08:00pm 17.8 15.0 10.1 60 4.1 N 15 20 8 11 1018.0 - 0.0
30/07:30pm 18.3 15.3 9.1 55 4.8 N 15 19 8 10 1017.8 - 0.0
30/07:00pm 18.3 16.8 2.9 36 7.1 CALM 0 0 0 0 1017.4 - 0.0
30/06:30pm 19.8 17.6 3.5 34 7.7 S 4 7 2 4 1016.9 - 0.0
30/06:00pm 22.9 18.8 -3.2 17 11.1 SSW 9 11 5 6 1016.4 1016.4 0.0
30/05:30pm 24.5 19.9 -4.5 14 12.2 S 11 13 6 7 1016.1 - 0.0
30/05:00pm 25.5 20.7 -6.0 12 13.0 S 11 17 6 9 1015.7 - 0.0
30/04:30pm 26.1 20.6 -5.8 12 13.3 S 15 19 8 10 1015.6 - 0.0
30/04:00pm 26.1 20.2 -5.8 12 13.3 S 17 26 9 14 1015.4 - 0.0
30/03:30pm 26.6 22.0 -3.8 13 13.2 SSE 11 20 6 11 1015.4 - 0.0
30/03:00pm 26.2 21.9 -4.4 13 13.1 S 9 19 5 10 1015.5 1015.5 0.0
30/02:30pm 26.5 21.3 -2.6 14 12.9 S 15 26 8 14 1015.8 - 0.0
30/02:00pm 25.4 19.4 -1.7 16 12.1 SW 20 28 11 15 1016.3 - 0.0
30/01:30pm 25.8 22.4 -0.3 18 12.0 WNW 7 13 4 7 1016.8 - 0.0
30/01:00pm 24.9 20.8 -0.3 19 11.5 SW 11 20 6 11 1017.5 - 0.0
30/12:30pm 25.1 19.3 -1.5 17 11.9 SW 19 26 10 14 1018.2 - 0.0
30/12:00pm 23.9 21.5 7.2 34 8.7 E 9 15 5 8 1019.0 1019.0 0.0
30/11:30am 22.9 20.4 6.7 35 8.3 E 9 15 5 8 1019.7 - 0.0
30/11:00am 22.8 21.1 7.6 37 7.9 WSW 6 11 3 6 1020.2 - 0.0
30/10:30am 22.5 21.2 9.2 42 7.1 S 6 9 3 5 1020.6 - 0.0
30/10:00am 21.2 19.8 9.4 47 6.3 W 7 11 4 6 1021.0 - 0.0
30/09:30am 20.1 19.3 11.6 58 4.7 S 7 13 4 7 1021.1 - 0.0
30/09:00am 18.7 17.8 11.4 62 4.0 SSW 7 11 4 6 1021.2 1021.2 0.0
30/08:30am 16.7 16.3 12.5 76 2.3 SW 6 9 3 5 1021.3 - 0.0
30/08:00am 15.1 14.7 12.5 84 1.4 SW 6 7 3 4 1021.3 - 0.0
30/07:30am 13.8 14.8 13.1 96 0.4 CALM 0 0 0 0 1021.2 - 0.0
30/07:00am 11.8 12.3 11.6 99 0.1 CALM 0 0 0 0 1021.1 - 0.0
30/06:56am 11.5 11.8 10.9 96 0.3 CALM 0 0 0 0 1021.1 - 0.0
30/06:30am 10.9 11.0 10.3 96 0.3 CALM 0 0 0 0 1020.8 - 0.0
30/06:00am 10.7 10.8 10.1 96 0.3 CALM 0 0 0 0 1020.5 1020.5 0.0
30/05:45am 11.6 12.0 11.2 97 0.2 CALM 0 0 0 0 1020.2 - 0.0
30/05:30am 11.3 11.5 10.5 95 0.4 CALM 0 6 0 3 1020.2 - 0.0
30/05:09am 11.6 11.6 11.0 96 0.3 SSE 2 7 1 4 1020.0 - 0.0
30/05:00am 11.6 11.9 11.0 96 0.3 CALM 0 0 0 0 1019.8 - 0.0
30/04:47am 11.3 11.3 11.1 99 0.1 ESE 2 6 1 3 1019.9 - 0.0
30/04:46am 11.3 10.9 11.1 99 0.1 ESE 4 6 2 3 1019.9 - 0.0
30/04:41am 11.3 11.0 11.3 100 0.0 SE 4 6 2 3 1019.9 - 0.0
30/04:30am 12.3 11.8 11.9 97 0.2 S 6 7 3 4 1019.9 - 0.0
30/04:18am 12.2 11.7 12.0 99 0.1 S 6 7 3 4 1019.8 - 0.0
30/04:16am 12.2 11.6 11.8 97 0.2 S 6 7 3 4 1019.8 - 0.0
30/04:12am 12.1 11.9 11.7 97 0.2 S 4 7 2 4 1019.8 - 0.0
30/04:00am 11.5 10.8 11.3 99 0.1 S 6 7 3 4 1019.8 - 0.0
30/03:49am 11.8 11.2 11.6 99 0.1 S 6 9 3 5 1019.8 - 0.0
30/03:30am 11.6 10.9 11.4 99 0.1 S 6 9 3 5 1019.7 - 0.0
30/03:20am 11.3 10.3 10.9 97 0.2 SSW 7 7 4 4 1019.7 - 0.0
30/03:15am 11.3 10.3 10.9 97 0.2 SSW 7 9 4 5 1019.8 - 0.0
30/03:00am 11.5 10.8 10.1 91 0.7 NNW 4 9 2 5 1019.9 1019.9 0.0
30/02:30am 11.9 12.3 11.1 95 0.4 CALM 0 0 0 0 1019.9 - 0.0
30/02:00am 12.2 12.3 11.6 96 0.3 N 2 7 1 4 1020.0 - 0.0
30/01:30am 12.1 12.6 11.5 96 0.3 CALM 0 0 0 0 1020.0 - 0.0
30/01:00am 12.3 12.5 11.7 96 0.3 N 2 7 1 4 1019.9 - 0.0
30/12:30am 12.6 12.8 12.0 96 0.3 N 2 6 1 3 1019.9 - 0.0
30/12:00am 13.1 13.9 12.4 95 0.4 CALM 0 0 0 0 1019.9 1019.9 0.0
 
Date/Time
EST
Temp
°C
App
Temp
°C
Dew
Point
Rel
Hum
%
Delta-T
°C
Wind Press
QNH
hPa
Press
MSL
hPa
Rain
since 9 am
mm
Dir
 
Spd
km/h
Gust
km/h
Spd
kts
Gust
kts
29/11:30pm 13.2 13.2 12.3 94 0.5 WNW 4 7 2 4 1019.9 - 0.0
29/11:00pm 14.4 14.1 13.3 93 0.6 S 7 9 4 5 1019.9 - 0.0
29/10:30pm 13.4 13.6 11.9 91 0.8 ESE 2 9 1 5 1020.0 - 0.0
29/10:00pm 13.9 13.3 11.6 86 1.2 S 6 7 3 4 1020.0 - 0.0
29/09:30pm 14.2 14.0 11.8 85 1.3 WNW 4 9 2 5 1020.1 - 0.0
29/09:00pm 14.8 14.0 11.6 81 1.7 W 7 9 4 5 1020.3 1020.3 0.0
29/08:30pm 16.3 15.3 11.1 71 2.8 S 7 9 4 5 1020.2 - 0.0
29/08:00pm 16.1 16.2 10.0 67 3.2 CALM 0 0 0 0 1020.1 - 0.0
29/07:30pm 17.7 16.5 9.5 58 4.3 SW 6 9 3 5 1019.7 - 0.0
29/07:00pm 18.0 16.6 9.6 58 4.4 WSW 7 9 4 5 1019.6 - 0.0
29/06:30pm 19.4 18.1 9.1 51 5.4 WSW 6 7 3 4 1019.2 - 0.0
29/06:00pm 20.4 19.6 9.7 50 5.7 NE 4 7 2 4 1018.6 1018.6 0.0
29/05:30pm 21.6 19.6 8.5 43 6.9 NE 9 15 5 8 1018.2 - 0.0
29/05:00pm 22.9 20.5 8.8 40 7.5 NE 11 17 6 9 1017.9 - 0.0
29/04:30pm 23.6 20.5 8.8 39 7.9 NE 15 20 8 11 1017.6 - 0.0
29/04:00pm 23.8 21.1 8.9 38 8.0 NE 13 22 7 12 1017.7 - 0.0
29/03:30pm 24.7 21.5 8.4 35 8.7 NE 15 30 8 16 1017.7 - 0.0
29/03:00pm 24.6 22.4 8.0 34 8.8 NNE 9 13 5 7 1018.0 1018.0 0.0
29/02:30pm 25.2 22.2 7.6 32 9.3 NNE 13 20 7 11 1018.3 - 0.0
29/02:00pm 24.8 21.4 7.5 33 9.1 ENE 15 22 8 12 1018.6 - 0.0
29/01:30pm 24.1 21.1 7.5 34 8.7 E 13 22 7 12 1019.0 - 0.0
29/01:00pm 23.9 21.0 8.2 36 8.3 E 13 20 7 11 1019.7 - 0.0
29/12:30pm 23.7 20.9 8.5 38 8.1 ESE 13 20 7 11 1020.2 - 0.0
29/12:00pm 23.4 20.1 8.0 37 8.1 ESE 15 20 8 11 1020.7 1020.7 0.0
29/11:30am 23.0 18.9 7.7 37 8.0 ESE 19 28 10 15 1021.3 - 0.0
29/11:00am 22.1 18.4 7.9 40 7.4 E 17 24 9 13 1021.9 - 0.0
29/10:30am 21.8 17.9 8.5 42 7.0 ESE 19 28 10 15 1022.2 - 0.0
29/10:00am 20.9 17.3 8.5 45 6.5 ESE 17 32 9 17 1022.5 - 0.0
29/09:30am 20.3 16.4 8.6 47 6.1 SE 19 28 10 15 1022.3 - 0.0
29/09:00am 19.5 15.4 8.0 47 5.9 ESE 19 28 10 15 1022.3 1022.3 0.0
29/08:30am 18.8 16.2 9.2 53 5.0 SE 13 20 7 11 1022.5 - -
29/08:00am 17.7 15.4 10.6 63 3.8 ESE 13 20 7 11 1022.3 - -
29/07:30am 16.3 14.0 10.6 69 3.0 ESE 13 19 7 10 1021.9 - -
29/07:00am 15.4 13.6 10.7 73 2.5 ESE 11 17 6 9 1021.6 - -
29/06:30am 14.9 12.6 10.5 75 2.3 ESE 13 19 7 10 1021.3 - -
29/06:00am 14.7 12.5 10.9 78 2.0 SE 13 19 7 10 1020.8 1020.8 -
29/05:30am 13.6 12.0 11.7 88 1.0 SSE 11 13 6 7 1020.7 - -
29/05:00am 14.1 13.0 12.1 88 1.1 SE 9 15 5 8 1020.4 - -
29/04:30am 14.5 12.8 12.3 87 1.2 ESE 13 19 7 10 1020.0 - -
29/04:00am 13.5 12.8 12.0 91 0.8 S 7 9 4 5 1019.9 - -
29/03:00am 14.0 13.6 12.5 91 0.8 S 6 7 3 4 1019.7 1019.7 0.0
29/02:30am 13.5 14.0 11.6 88 1.0 CALM 0 0 0 0 1019.9 - -
29/02:00am 13.5 14.1 11.8 89 0.9 CALM 0 0 0 0 1019.9 - -
29/01:30am 14.2 14.7 11.6 84 1.4 CALM 0 0 0 0 1020.0 - -
29/01:00am 14.9 15.4 11.5 80 1.8 CALM 0 7 0 4 1020.0 - -
29/12:30am 14.1 13.9 11.7 85 1.3 NNE 4 7 2 4 1020.2 - -
29/12:00am 14.9 15.6 12.1 83 1.5 CALM 0 0 0 0 1020.5 1020.5 -
 
Date/Time
EST
Temp
°C
App
Temp
°C
Dew
Point
Rel
Hum
%
Delta-T
°C
Wind Press
QNH
hPa
Press
MSL
hPa
Rain
since 9 am
mm
Dir
 
Spd
km/h
Gust
km/h
Spd
kts
Gust
kts
28/11:30pm 16.3 16.5 11.7 74 2.5 SW 2 7 1 4 1020.4 - -
28/11:00pm 16.1 16.8 12.1 77 2.2 CALM 0 0 0 0 1020.2 - -
28/10:30pm 17.0 16.3 11.5 70 3.0 SW 6 7 3 4 1020.1 - 0.0
28/10:00pm 16.3 15.6 11.3 72 2.7 SW 6 9 3 5 1019.9 - 0.0
28/09:30pm 17.8 16.8 10.9 64 3.7 SE 7 9 4 5 1019.9 - 0.0
28/09:00pm 17.7 16.8 10.6 63 3.8 SSE 6 9 3 5 1019.8 1019.8 0.0
28/08:30pm 18.2 17.3 10.8 62 4.0 S 6 9 3 5 1019.5 - 0.0

Other Formats:

Comma delimited format used in spreadsheet applications
http://www.bom.gov.au/fwo/IDQ60801/IDQ60801.94374.axf

JavaScript Object Notation format (JSON) in row-major order
http://www.bom.gov.au/fwo/IDQ60801/IDQ60801.94374.json